Time;durP1;ratioP1;P1;durP2;ratioP2;P2;SDS_P1;SDS_P2;PMS_P1;PMS_P2;Temp;Humidity;BMP_temperature;BMP_pressure;BME280_temperature;BME280_humidity;BME280_pressure;Samples;Min_cycle;Max_cycle;Signal;HPM_P1;HPM_P2
2023/10/16 00:00:40;;;;;;;1.60;0.98;;;;;;;;;;5048149;28;20402;-80
2023/10/16 00:03:06;;;;;;;1.40;1.30;;;;;;;;;;5070444;28;20070;-81
2023/10/16 00:05:49;;;;;;;6.13;2.00;;;;;;;;;;5047862;28;20034;-81
2023/10/16 00:08:18;;;;;;;2.58;1.48;;;;;;;;;;5064920;28;20047;-81
2023/10/16 00:11:01;;;;;;;1.75;1.30;;;;;;;;;;5070669;28;20029;-81
2023/10/16 00:13:27;;;;;;;1.05;1.02;;;;;;;;;;5049746;28;20025;-81
2023/10/16 00:16:04;;;;;;;3.00;1.40;;;;;;;;;;5067379;28;20437;-80
2023/10/16 00:18:34;;;;;;;2.10;1.30;;;;;;;;;;5066097;28;20020;-81
2023/10/16 00:21:04;;;;;;;1.52;1.42;;;;;;;;;;5069543;28;20020;-81
2023/10/16 00:23:37;;;;;;;1.70;1.60;;;;;;;;;;5035369;28;20021;-84
2023/10/16 00:26:04;;;;;;;1.58;1.48;;;;;;;;;;5064034;28;20016;-81
2023/10/16 00:28:30;;;;;;;3.25;1.92;;;;;;;;;;5041711;28;20043;-81
2023/10/16 00:30:55;;;;;;;1.30;1.20;;;;;;;;;;5060831;28;20021;-81
2023/10/16 00:33:21;;;;;;;1.35;1.25;;;;;;;;;;5068659;28;20032;-80
2023/10/16 00:35:48;;;;;;;1.50;1.40;;;;;;;;;;5043593;28;20055;-80
2023/10/16 00:38:14;;;;;;;1.45;1.35;;;;;;;;;;5051633;28;20027;-82
2023/10/16 00:43:28;;;;;;;4.07;1.13;;;;;;;;;;5068465;28;20031;-83
2023/10/16 00:46:05;;;;;;;1.38;1.20;;;;;;;;;;5038457;28;20802;-82
2023/10/16 00:48:32;;;;;;;1.60;1.30;;;;;;;;;;5047714;28;20082;-81
2023/10/16 00:51:02;;;;;;;3.53;1.88;;;;;;;;;;5048915;28;20032;-83
2023/10/16 00:53:28;;;;;;;3.45;1.50;;;;;;;;;;5048584;28;20029;-83
2023/10/16 00:55:55;;;;;;;1.63;1.40;;;;;;;;;;5067649;28;20079;-83
2023/10/16 00:58:21;;;;;;;3.90;1.92;;;;;;;;;;5048769;28;20023;-82
2023/10/16 01:00:48;;;;;;;1.48;1.30;;;;;;;;;;5073334;28;20024;-83
2023/10/16 01:03:14;;;;;;;1.77;1.38;;;;;;;;;;5065841;28;20104;-83
2023/10/16 01:05:42;;;;;;;5.18;1.70;;;;;;;;;;5073538;28;20024;-81
2023/10/16 01:08:09;;;;;;;2.10;1.48;;;;;;;;;;5056169;28;20039;-82
2023/10/16 01:10:37;;;;;;;1.00;1.00;;;;;;;;;;5045203;28;20044;-83
2023/10/16 01:13:07;;;;;;;4.30;1.88;;;;;;;;;;5050648;28;20027;-83
2023/10/16 01:15:33;;;;;;;1.95;1.63;;;;;;;;;;5065283;28;20020;-83
2023/10/16 01:17:59;;;;;;;2.35;2.10;;;;;;;;;;5039958;28;20021;-83
2023/10/16 01:20:24;;;;;;;1.92;1.50;;;;;;;;;;5043585;28;20029;-82
2023/10/16 01:22:49;;;;;;;1.70;1.60;;;;;;;;;;5062775;28;20013;-82
2023/10/16 01:25:15;;;;;;;2.38;1.67;;;;;;;;;;5054209;28;20483;-83
2023/10/16 01:27:42;;;;;;;1.65;1.55;;;;;;;;;;5051498;28;20024;-83
2023/10/16 01:30:09;;;;;;;1.10;1.02;;;;;;;;;;5068708;28;20024;-83
2023/10/16 01:32:35;;;;;;;1.58;1.48;;;;;;;;;;5048085;28;20079;-82
2023/10/16 01:35:01;;;;;;;1.30;1.05;;;;;;;;;;5063366;28;20032;-82
2023/10/16 01:37:26;;;;;;;1.83;1.65;;;;;;;;;;5045733;28;20055;-82
2023/10/16 01:39:55;;;;;;;1.92;1.75;;;;;;;;;;5062913;28;20025;-82
2023/10/16 01:42:21;;;;;;;1.83;1.65;;;;;;;;;;5069949;28;20044;-82
2023/10/16 01:44:48;;;;;;;1.50;1.40;;;;;;;;;;5047069;28;20054;-82
2023/10/16 01:47:15;;;;;;;1.38;1.27;;;;;;;;;;5066969;28;20021;-83
2023/10/16 01:49:44;;;;;;;2.30;1.10;;;;;;;;;;5056520;28;20102;-82
2023/10/16 01:52:11;;;;;;;3.15;1.63;;;;;;;;;;5055442;28;20355;-83
2023/10/16 01:54:42;;;;;;;2.85;2.33;;;;;;;;;;5054659;28;20117;-83
2023/10/16 01:57:10;;;;;;;2.90;1.75;;;;;;;;;;5072071;28;20055;-83
2023/10/16 01:59:41;;;;;;;1.48;1.38;;;;;;;;;;5050681;28;20113;-82
2023/10/16 02:02:09;;;;;;;1.67;1.58;;;;;;;;;;5049638;28;20020;-81
2023/10/16 02:04:38;;;;;;;3.20;2.15;;;;;;;;;;5061038;28;20387;-82
2023/10/16 02:07:04;;;;;;;3.47;2.22;;;;;;;;;;5059931;28;20024;-81
2023/10/16 02:09:31;;;;;;;3.35;2.20;;;;;;;;;;5056129;28;20521;-82
2023/10/16 02:11:59;;;;;;;1.60;1.50;;;;;;;;;;5047375;28;20027;-82
2023/10/16 02:14:25;;;;;;;1.20;1.10;;;;;;;;;;5049387;28;20025;-81
2023/10/16 02:16:51;;;;;;;1.45;1.35;;;;;;;;;;5051057;28;20111;-82
2023/10/16 02:19:17;;;;;;;1.65;1.55;;;;;;;;;;5069915;28;20108;-82
2023/10/16 02:21:42;;;;;;;1.75;1.55;;;;;;;;;;5044487;28;20113;-82
2023/10/16 02:24:08;;;;;;;1.88;1.27;;;;;;;;;;5045221;28;20494;-82
2023/10/16 02:26:45;;;;;;;1.92;1.10;;;;;;;;;;5060760;28;20111;-81
2023/10/16 02:29:12;;;;;;;3.20;1.33;;;;;;;;;;5041569;28;20359;-82
2023/10/16 02:31:39;;;;;;;5.53;1.92;;;;;;;;;;5068152;28;20029;-81
2023/10/16 02:34:12;;;;;;;1.02;1.02;;;;;;;;;;5072021;28;20035;-83
2023/10/16 02:36:37;;;;;;;2.03;1.50;;;;;;;;;;5060389;28;20494;-83
2023/10/16 02:39:07;;;;;;;2.40;1.73;;;;;;;;;;5046373;28;20032;-82
2023/10/16 02:41:33;;;;;;;3.30;1.40;;;;;;;;;;5063384;28;20036;-82
2023/10/16 02:43:58;;;;;;;1.60;1.50;;;;;;;;;;5057654;28;20067;-82
2023/10/16 02:46:24;;;;;;;2.38;1.75;;;;;;;;;;5066228;28;20021;-83
2023/10/16 02:48:53;;;;;;;4.53;1.73;;;;;;;;;;5067627;28;20025;-82
2023/10/16 02:51:18;;;;;;;1.08;1.02;;;;;;;;;;5064342;28;20021;-83
2023/10/16 02:53:45;;;;;;;0.70;0.70;;;;;;;;;;5073079;28;20452;-82
2023/10/16 02:58:57;;;;;;;1.48;1.42;;;;;;;;;;5074245;28;20070;-83
2023/10/16 03:01:23;;;;;;;1.10;1.10;;;;;;;;;;5066870;28;20100;-82
2023/10/16 03:03:49;;;;;;;0.80;0.80;;;;;;;;;;5047997;28;20056;-83
2023/10/16 03:06:21;;;;;;;0.55;0.55;;;;;;;;;;5059558;28;20024;-82
2023/10/16 03:08:49;;;;;;;0.90;0.90;;;;;;;;;;5056267;28;20487;-81
2023/10/16 03:11:15;;;;;;;1.40;1.30;;;;;;;;;;5045173;28;20491;-82
2023/10/16 03:13:43;;;;;;;1.92;1.40;;;;;;;;;;5066166;28;20506;-82
2023/10/16 03:16:16;;;;;;;4.35;1.40;;;;;;;;;;5056787;28;20489;-82
2023/10/16 03:18:43;;;;;;;1.45;1.27;;;;;;;;;;5039393;28;20096;-82
2023/10/16 03:23:35;;;;;;;1.10;1.10;;;;;;;;;;5062529;28;20058;-81
2023/10/16 03:26:02;;;;;;;1.42;1.15;;;;;;;;;;5057428;28;20021;-82
2023/10/16 03:28:27;;;;;;;1.25;1.23;;;;;;;;;;5060347;28;20021;-82
2023/10/16 03:30:58;;;;;;;3.88;1.58;;;;;;;;;;5064790;28;20028;-83
2023/10/16 03:33:25;;;;;;;1.55;1.45;;;;;;;;;;5045788;28;20028;-82
2023/10/16 03:35:50;;;;;;;1.10;1.08;;;;;;;;;;5058046;28;20097;-82
2023/10/16 03:38:24;;;;;;;1.90;1.45;;;;;;;;;;5062719;28;20107;-82
2023/10/16 03:40:51;;;;;;;1.52;1.42;;;;;;;;;;5065278;28;20395;-81
2023/10/16 03:43:19;;;;;;;2.92;1.80;;;;;;;;;;5064610;28;20020;-82
2023/10/16 03:45:44;;;;;;;1.55;1.48;;;;;;;;;;5068878;28;20028;-81
2023/10/16 03:48:11;;;;;;;2.25;1.95;;;;;;;;;;5054872;28;20066;-82
2023/10/16 03:50:38;;;;;;;2.95;2.00;;;;;;;;;;5069600;28;20032;-82
2023/10/16 03:53:07;;;;;;;4.50;2.22;;;;;;;;;;5055662;28;20016;-82
2023/10/16 03:55:52;;;;;;;1.70;1.60;;;;;;;;;;5074360;28;20486;-82
2023/10/16 03:58:17;;;;;;;2.85;1.83;;;;;;;;;;5064354;28;20021;-82
2023/10/16 04:01:28;;;;;;;1.52;1.45;;;;;;;;;;5048391;28;20025;-82
2023/10/16 04:03:36;;;;;;;2.53;1.77;;;;;;;;;;5054767;28;20063;-82
2023/10/16 04:06:08;;;;;;;1.60;1.50;;;;;;;;;;5045218;28;20056;-82
2023/10/16 04:08:35;;;;;;;0.93;0.93;;;;;;;;;;5067771;28;20667;-82
2023/10/16 04:11:02;;;;;;;1.02;1.02;;;;;;;;;;5051734;28;20024;-82
2023/10/16 04:13:30;;;;;;;0.75;0.75;;;;;;;;;;5066425;28;20479;-82
2023/10/16 04:18:30;;;;;;;0.95;0.95;;;;;;;;;;5068527;28;20401;-81
2023/10/16 04:26:31;;;;;;;1.80;1.67;;;;;;;;;;5066130;28;20505;-82
2023/10/16 04:31:44;;;;;;;1.10;1.00;;;;;;;;;;5074485;28;20025;-81
2023/10/16 04:34:34;;;;;;;1.83;1.60;;;;;;;;;;5051101;28;20537;-82
2023/10/16 04:50:49;;;;;;;1.48;1.40;;;;;;;;;;5064855;28;20458;-82
2023/10/16 04:53:11;;;;;;;1.02;1.00;;;;;;;;;;5059959;28;20024;-81
2023/10/16 05:06:27;;;;;;;1.10;1.00;;;;;;;;;;5073135;28;20075;-82
2023/10/16 06:16:30;;;;;;;0.95;0.95;;;;;;;;;;5075444;28;20106;-85
2023/10/16 06:18:57;;;;;;;1.50;1.40;;;;;;;;;;5074597;28;20024;-87
2023/10/16 06:21:25;;;;;;;1.90;1.80;;;;;;;;;;5074842;28;20051;-87
2023/10/16 06:23:51;;;;;;;2.75;1.13;;;;;;;;;;5073669;28;20032;-87
2023/10/16 06:26:18;;;;;;;2.17;1.98;;;;;;;;;;5056403;28;20024;-87
2023/10/16 06:28:51;;;;;;;3.90;1.83;;;;;;;;;;5057509;28;20017;-86
2023/10/16 06:31:23;;;;;;;5.72;2.30;;;;;;;;;;5057772;28;20071;-88
2023/10/16 06:33:53;;;;;;;1.88;1.77;;;;;;;;;;5073099;28;20036;-86
2023/10/16 06:36:20;;;;;;;2.65;2.22;;;;;;;;;;5069816;28;20086;-86
2023/10/16 06:38:51;;;;;;;1.48;1.38;;;;;;;;;;5050014;28;20098;-88
2023/10/16 06:41:17;;;;;;;3.60;1.80;;;;;;;;;;5077036;28;20032;-86
2023/10/16 06:43:43;;;;;;;2.30;1.88;;;;;;;;;;5079479;28;20112;-87
2023/10/16 06:46:11;;;;;;;2.05;1.85;;;;;;;;;;5061406;28;20059;-87
2023/10/16 06:48:37;;;;;;;3.40;2.58;;;;;;;;;;5058397;28;20043;-88
2023/10/16 06:51:04;;;;;;;2.33;1.88;;;;;;;;;;5083150;28;20024;-86
2023/10/16 06:53:30;;;;;;;4.10;2.25;;;;;;;;;;5049150;28;20089;-86
2023/10/16 06:55:56;;;;;;;1.88;1.50;;;;;;;;;;5059660;28;20486;-86
2023/10/16 06:58:21;;;;;;;3.67;1.92;;;;;;;;;;5068876;28;20629;-88
2023/10/16 07:00:52;;;;;;;4.45;2.08;;;;;;;;;;5060236;28;20094;-85
2023/10/16 07:03:17;;;;;;;3.22;2.15;;;;;;;;;;5071639;28;20100;-86
2023/10/16 07:05:43;;;;;;;5.25;2.30;;;;;;;;;;5094092;28;20025;-84
2023/10/16 07:08:19;;;;;;;3.78;2.10;;;;;;;;;;5079133;28;20016;-84
2023/10/16 07:10:51;;;;;;;4.90;2.20;;;;;;;;;;5089182;28;20024;-86
2023/10/16 07:13:28;;;;;;;;;;;;;;;;;;5075733;28;20103;-88
2023/10/16 07:16:02;;;;;;;2.75;2.15;;;;;;;;;;5056621;28;19912;-86
2023/10/16 07:18:31;;;;;;;6.82;1.77;;;;;;;;;;5074634;28;20090;-86
2023/10/16 07:21:07;;;;;;;3.03;2.13;;;;;;;;;;5057282;28;20024;-85
2023/10/16 07:23:36;;;;;;;4.63;2.00;;;;;;;;;;5049123;28;20017;-87
2023/10/16 07:26:16;;;;;;;4.32;2.22;;;;;;;;;;5068860;28;20450;-85
2023/10/16 07:28:48;;;;;;;5.50;2.45;;;;;;;;;;5085672;28;20029;-86
2023/10/16 07:31:14;;;;;;;5.75;2.20;;;;;;;;;;5100930;28;20021;-85
2023/10/16 07:33:41;;;;;;;2.20;1.95;;;;;;;;;;5073589;28;20059;-87
2023/10/16 07:36:11;;;;;;;2.20;2.00;;;;;;;;;;5086056;28;20024;-85
2023/10/16 07:38:38;;;;;;;3.22;2.05;;;;;;;;;;5080230;28;20360;-86
2023/10/16 07:41:03;;;;;;;5.03;2.60;;;;;;;;;;5056807;28;20055;-85
2023/10/16 07:43:33;;;;;;;3.72;1.77;;;;;;;;;;5072261;28;20028;-85
2023/10/16 07:48:42;;;;;;;4.45;2.10;;;;;;;;;;5071661;28;20497;-85
2023/10/16 07:51:08;;;;;;;3.60;2.10;;;;;;;;;;5052910;28;20444;-88
2023/10/16 07:53:37;;;;;;;3.40;2.25;;;;;;;;;;5048757;28;20020;-87
2023/10/16 07:56:07;;;;;;;5.40;2.30;;;;;;;;;;5070718;28;20054;-88
2023/10/16 07:58:35;;;;;;;2.92;2.17;;;;;;;;;;5067495;28;20085;-86
2023/10/16 08:03:41;;;;;;;4.47;2.10;;;;;;;;;;5071693;28;20027;-88
2023/10/16 08:06:12;;;;;;;3.92;2.22;;;;;;;;;;5059564;28;20032;-88
2023/10/16 08:08:42;;;;;;;3.05;2.17;;;;;;;;;;5064341;28;20039;-87
2023/10/16 08:11:12;;;;;;;3.20;2.00;;;;;;;;;;5053801;28;20066;-87
2023/10/16 08:13:46;;;;;;;5.18;2.33;;;;;;;;;;5045563;28;20020;-86
2023/10/16 08:16:18;;;;;;;3.50;2.10;;;;;;;;;;5053558;28;20032;-88
2023/10/16 08:18:51;;;;;;;3.08;2.00;;;;;;;;;;5053079;28;20420;-88
2023/10/16 08:21:24;;;;;;;2.70;1.77;;;;;;;;;;5050473;28;20017;-88
2023/10/16 08:23:50;;;;;;;5.28;2.00;;;;;;;;;;5053484;28;20596;-86
2023/10/16 08:26:28;;;;;;;2.10;1.85;;;;;;;;;;5053542;28;20561;-87
2023/10/16 08:29:11;;;;;;;4.75;1.75;;;;;;;;;;5054241;28;20058;-87
2023/10/16 08:31:41;;;;;;;2.38;1.70;;;;;;;;;;5066443;28;20031;-89
2023/10/16 08:34:12;;;;;;;2.35;1.90;;;;;;;;;;5052862;28;20036;-87
2023/10/16 08:36:38;;;;;;;4.35;1.88;;;;;;;;;;5050478;28;20055;-86
2023/10/16 08:39:10;;;;;;;1.75;1.65;;;;;;;;;;5052957;28;20561;-86
2023/10/16 08:41:43;;;;;;;3.97;1.63;;;;;;;;;;5054496;28;20111;-85
2023/10/16 08:44:14;;;;;;;2.00;1.67;;;;;;;;;;5059567;28;20055;-87
2023/10/16 08:46:53;;;;;;;;;;;;;;;;;;5055002;28;20029;-87
2023/10/16 08:49:22;;;;;;;3.28;1.60;;;;;;;;;;5053871;28;19913;-86
2023/10/16 08:51:53;;;;;;;1.83;1.70;;;;;;;;;;5074926;28;20108;-86
2023/10/16 08:57:07;;;;;;;1.55;1.45;;;;;;;;;;5080064;28;20083;-84
2023/10/16 08:59:33;;;;;;;2.55;1.63;;;;;;;;;;5075519;28;20071;-85
2023/10/16 09:02:01;;;;;;;1.75;1.55;;;;;;;;;;5057048;28;20037;-86
2023/10/16 09:04:27;;;;;;;1.92;1.35;;;;;;;;;;5074339;28;20692;-86
2023/10/16 09:06:53;;;;;;;1.95;1.80;;;;;;;;;;5074785;28;20054;-86
2023/10/16 09:09:20;;;;;;;4.63;2.25;;;;;;;;;;5074452;28;20029;-86
2023/10/16 09:11:47;;;;;;;1.92;1.45;;;;;;;;;;5056054;28;20029;-86
2023/10/16 09:14:17;;;;;;;1.17;1.10;;;;;;;;;;5056980;28;20048;-86
2023/10/16 09:16:51;;;;;;;4.55;1.90;;;;;;;;;;5074320;28;20103;-86
2023/10/16 09:19:18;;;;;;;1.63;1.25;;;;;;;;;;5056597;28;20020;-86
2023/10/16 09:21:44;;;;;;;1.67;1.55;;;;;;;;;;5057079;28;20024;-86
2023/10/16 09:24:14;;;;;;;2.22;1.50;;;;;;;;;;5057356;28;20024;-85
2023/10/16 09:26:46;;;;;;;1.30;1.20;;;;;;;;;;5058965;28;20482;-84
2023/10/16 09:29:15;;;;;;;4.07;1.42;;;;;;;;;;5078012;28;20024;-85
2023/10/16 09:31:47;;;;;;;1.48;1.35;;;;;;;;;;5062257;28;20021;-86
2023/10/16 09:34:17;;;;;;;2.92;1.80;;;;;;;;;;5077740;28;20024;-87
2023/10/16 09:36:46;;;;;;;3.33;1.75;;;;;;;;;;5074540;28;20048;-88
2023/10/16 09:39:17;;;;;;;3.28;1.70;;;;;;;;;;5056581;28;20033;-89
2023/10/16 09:41:49;;;;;;;3.75;1.85;;;;;;;;;;5058852;28;20026;-88
2023/10/16 09:44:24;;;;;;;1.67;1.20;;;;;;;;;;5057295;28;20406;-86
2023/10/16 09:46:53;;;;;;;1.77;1.55;;;;;;;;;;5050175;28;20449;-89
2023/10/16 09:49:24;;;;;;;1.30;1.20;;;;;;;;;;5057707;28;20432;-87
2023/10/16 09:51:51;;;;;;;2.03;1.60;;;;;;;;;;5075391;28;20096;-88
2023/10/16 09:54:18;;;;;;;1.88;1.65;;;;;;;;;;5056622;28;20490;-87
2023/10/16 09:56:48;;;;;;;1.02;1.02;;;;;;;;;;5076542;28;20021;-87
2023/10/16 09:59:33;;;;;;;2.67;1.33;;;;;;;;;;5057424;28;20024;-88
2023/10/16 10:02:16;;;;;;;4.93;1.70;;;;;;;;;;5058192;28;20494;-88
2023/10/16 10:04:43;;;;;;;2.20;1.33;;;;;;;;;;5075720;28;20032;-88
2023/10/16 10:07:34;;;;;;;5.30;1.50;;;;;;;;;;5060400;28;20469;-88
2023/10/16 10:10:39;;;;;;;2.08;1.70;;;;;;;;;;5050241;28;20021;-87
2023/10/16 10:12:50;;;;;;;1.95;1.33;;;;;;;;;;5076806;28;20076;-87
2023/10/16 10:15:22;;;;;;;1.52;1.42;;;;;;;;;;5057988;28;20028;-87
2023/10/16 10:17:54;;;;;;;1.65;1.55;;;;;;;;;;5060091;28;20024;-88
2023/10/16 10:20:26;;;;;;;2.65;2.22;;;;;;;;;;5056863;28;20122;-87
2023/10/16 10:23:04;;;;;;;6.13;1.92;;;;;;;;;;5069504;28;20020;-86
2023/10/16 10:25:37;;;;;;;1.58;1.48;;;;;;;;;;5050360;28;20453;-86
2023/10/16 10:28:15;;;;;;;1.77;1.67;;;;;;;;;;5060469;28;20020;-87
2023/10/16 10:30:45;;;;;;;3.53;2.20;;;;;;;;;;5078123;28;20035;-87
2023/10/16 10:33:42;;;;;;;2.05;1.42;;;;;;;;;;5062408;28;20468;-87
2023/10/16 10:36:36;;;;;;;1.40;1.30;;;;;;;;;;5078827;28;20021;-87
2023/10/16 10:39:21;;;;;;;1.33;1.23;;;;;;;;;;5061300;28;20028;-88
2023/10/16 10:41:48;;;;;;;1.48;1.38;;;;;;;;;;5077798;28;20032;-87
2023/10/16 10:44:14;;;;;;;1.83;1.67;;;;;;;;;;5059145;28;20024;-88
2023/10/16 10:46:49;;;;;;;2.08;1.80;;;;;;;;;;5059482;28;20391;-87
2023/10/16 10:49:16;;;;;;;2.80;1.92;;;;;;;;;;5059834;28;20024;-85
2023/10/16 10:51:47;;;;;;;3.22;1.98;;;;;;;;;;5059403;28;20024;-87
2023/10/16 10:54:15;;;;;;;1.95;1.63;;;;;;;;;;5058986;28;20516;-88
2023/10/16 10:57:24;;;;;;;1.60;1.50;;;;;;;;;;5059293;28;20102;-88
2023/10/16 10:59:56;;;;;;;2.90;1.85;;;;;;;;;;5062071;28;20025;-89
2023/10/16 11:04:54;;;;;;;1.73;1.60;;;;;;;;;;5076572;28;20025;-87
2023/10/16 11:07:28;;;;;;;1.10;1.10;;;;;;;;;;5053524;28;20036;-88
2023/10/16 11:10:00;;;;;;;2.30;1.77;;;;;;;;;;5056563;28;20028;-88
2023/10/16 11:12:25;;;;;;;2.40;1.15;;;;;;;;;;5065361;28;20024;-88
2023/10/16 11:14:53;;;;;;;1.40;1.30;;;;;;;;;;5089762;28;20033;-87
2023/10/16 11:17:36;;;;;;;1.30;1.20;;;;;;;;;;5078724;28;20093;-85
2023/10/16 11:22:43;;;;;;;2.33;1.58;;;;;;;;;;5077620;28;20029;-88
2023/10/16 11:25:12;;;;;;;1.52;1.30;;;;;;;;;;5078276;28;20016;-86
2023/10/16 11:27:41;;;;;;;1.50;1.33;;;;;;;;;;5060007;28;20157;-87
2023/10/16 11:30:12;;;;;;;1.65;1.50;;;;;;;;;;5060307;28;20557;-86
2023/10/16 11:32:41;;;;;;;1.48;1.30;;;;;;;;;;5057941;28;20390;-86
2023/10/16 11:35:14;;;;;;;2.90;1.17;;;;;;;;;;5062377;28;20051;-87
2023/10/16 11:37:50;;;;;;;2.60;1.27;;;;;;;;;;5059879;28;20081;-85
2023/10/16 11:40:31;;;;;;;2.85;1.50;;;;;;;;;;5064265;28;20028;-86
2023/10/16 11:42:58;;;;;;;1.80;1.10;;;;;;;;;;5057214;28;20028;-87
2023/10/16 11:45:24;;;;;;;1.67;1.30;;;;;;;;;;5059520;28;20269;-87
2023/10/16 11:48:18;;;;;;;1.20;1.10;;;;;;;;;;5057343;28;20030;-87
2023/10/16 11:50:38;;;;;;;1.30;1.20;;;;;;;;;;5074274;28;20031;-89
2023/10/16 11:53:07;;;;;;;1.52;1.25;;;;;;;;;;5075835;28;20028;-87
2023/10/16 11:55:37;;;;;;;1.55;1.45;;;;;;;;;;5057882;28;20108;-87
2023/10/16 11:58:03;;;;;;;1.00;0.98;;;;;;;;;;5057514;28;20107;-86
2023/10/16 12:00:31;;;;;;;1.70;1.00;;;;;;;;;;5057590;28;20028;-86
2023/10/16 12:02:56;;;;;;;2.15;0.80;;;;;;;;;;5059525;28;20474;-86
2023/10/16 12:05:27;;;;;;;2.72;1.08;;;;;;;;;;5058369;28;20020;-86
2023/10/16 12:07:53;;;;;;;0.90;0.90;;;;;;;;;;5068161;28;20020;-88
2023/10/16 12:10:18;;;;;;;1.60;1.00;;;;;;;;;;5078496;28;20016;-86
2023/10/16 12:12:44;;;;;;;0.85;0.82;;;;;;;;;;5059424;28;20066;-87
2023/10/16 12:15:10;;;;;;;2.50;1.00;;;;;;;;;;5076025;28;20027;-86
2023/10/16 12:17:36;;;;;;;0.70;0.70;;;;;;;;;;5074970;28;20031;-86
2023/10/16 12:20:09;;;;;;;0.90;0.90;;;;;;;;;;5076824;28;20103;-86
2023/10/16 12:22:39;;;;;;;1.38;1.15;;;;;;;;;;5075952;28;20021;-86
2023/10/16 12:25:09;;;;;;;0.98;0.90;;;;;;;;;;5057519;28;20031;-86
2023/10/16 12:27:36;;;;;;;1.17;1.08;;;;;;;;;;5075534;28;20031;-87
2023/10/16 12:30:04;;;;;;;0.75;0.75;;;;;;;;;;5076090;28;20024;-88
2023/10/16 12:32:29;;;;;;;1.05;0.80;;;;;;;;;;5062004;28;20078;-86
2023/10/16 12:34:56;;;;;;;0.90;0.90;;;;;;;;;;5056586;28;20025;-86
2023/10/16 12:37:22;;;;;;;1.23;0.77;;;;;;;;;;5058238;28;20493;-85
2023/10/16 12:39:52;;;;;;;0.60;0.60;;;;;;;;;;5061397;28;20036;-88
2023/10/16 12:42:18;;;;;;;1.35;0.98;;;;;;;;;;5090879;28;20044;-88
2023/10/16 12:44:44;;;;;;;1.70;1.20;;;;;;;;;;5077899;28;20493;-86
2023/10/16 12:47:11;;;;;;;0.80;0.80;;;;;;;;;;5061483;28;20024;-87
2023/10/16 12:49:57;;;;;;;2.80;1.20;;;;;;;;;;5095130;28;20032;-87
2023/10/16 12:52:22;;;;;;;2.13;1.10;;;;;;;;;;5075976;28;20013;-88
2023/10/16 12:54:52;;;;;;;1.27;1.00;;;;;;;;;;5087311;28;20024;-87
2023/10/16 12:57:18;;;;;;;0.80;0.80;;;;;;;;;;5077957;28;20039;-85
2023/10/16 12:59:44;;;;;;;0.77;0.77;;;;;;;;;;5064053;28;20115;-86
2023/10/16 13:02:09;;;;;;;0.77;0.77;;;;;;;;;;5062599;28;20032;-87
2023/10/16 13:04:35;;;;;;;0.80;0.75;;;;;;;;;;5061342;28;20036;-85
2023/10/16 13:07:01;;;;;;;0.60;0.60;;;;;;;;;;5061195;28;20099;-86
2023/10/16 13:09:26;;;;;;;1.83;1.00;;;;;;;;;;5061850;28;20554;-87
2023/10/16 13:11:52;;;;;;;1.40;1.13;;;;;;;;;;5056710;28;20036;-86
2023/10/16 13:14:18;;;;;;;0.65;0.65;;;;;;;;;;5056121;28;20020;-85
2023/10/16 13:16:58;;;;;;;0.73;0.70;;;;;;;;;;5052761;28;20040;-85
2023/10/16 13:19:27;;;;;;;1.08;0.98;;;;;;;;;;5055061;28;20101;-84
2023/10/16 13:21:53;;;;;;;1.38;0.93;;;;;;;;;;5073920;28;20382;-85
2023/10/16 13:24:20;;;;;;;0.70;0.70;;;;;;;;;;5055773;28;20013;-85
2023/10/16 13:26:47;;;;;;;1.27;0.82;;;;;;;;;;5059975;28;20024;-87
2023/10/16 13:29:13;;;;;;;1.80;1.00;;;;;;;;;;5047887;28;20074;-85
2023/10/16 13:31:40;;;;;;;1.50;1.27;;;;;;;;;;5055746;28;20462;-85
2023/10/16 13:34:10;;;;;;;1.48;0.98;;;;;;;;;;5054317;28;20040;-87
2023/10/16 13:36:37;;;;;;;0.82;0.82;;;;;;;;;;5070358;28;20028;-88
2023/10/16 13:39:08;;;;;;;0.90;0.90;;;;;;;;;;5050708;28;20111;-86
2023/10/16 13:41:55;;;;;;;0.73;0.73;;;;;;;;;;5055339;28;20128;-86
2023/10/16 13:44:24;;;;;;;0.63;0.63;;;;;;;;;;5069083;28;20024;-88
2023/10/16 13:46:52;;;;;;;0.50;0.50;;;;;;;;;;5051577;28;20048;-87
2023/10/16 13:49:18;;;;;;;1.33;0.90;;;;;;;;;;5057726;28;20036;-88
2023/10/16 13:51:45;;;;;;;0.75;0.70;;;;;;;;;;5059852;28;20024;-86
2023/10/16 13:54:14;;;;;;;1.75;0.65;;;;;;;;;;5059194;28;20385;-84
2023/10/16 13:56:40;;;;;;;1.02;0.90;;;;;;;;;;5076863;28;20028;-86
2023/10/16 13:59:06;;;;;;;1.75;0.95;;;;;;;;;;5076967;28;20032;-85
2023/10/16 14:01:38;;;;;;;0.70;0.70;;;;;;;;;;5059878;28;20024;-84
2023/10/16 14:04:03;;;;;;;0.77;0.63;;;;;;;;;;5058655;28;20028;-85
2023/10/16 14:06:33;;;;;;;2.92;0.73;;;;;;;;;;5059069;28;20035;-86
2023/10/16 14:09:10;;;;;;;0.88;0.88;;;;;;;;;;5078431;28;20033;-87
2023/10/16 14:11:38;;;;;;;0.82;0.82;;;;;;;;;;5059860;28;20029;-85
2023/10/16 14:14:10;;;;;;;1.30;0.93;;;;;;;;;;5060709;28;20038;-85
2023/10/16 14:16:35;;;;;;;1.50;1.07;;;;;;;;;;5062220;28;20032;-87
2023/10/16 14:19:06;;;;;;;1.85;0.82;;;;;;;;;;5060231;28;20024;-89
2023/10/16 14:21:31;;;;;;;1.27;0.93;;;;;;;;;;5057540;28;20074;-86
2023/10/16 14:23:56;;;;;;;1.40;1.30;;;;;;;;;;5056867;28;20036;-86
2023/10/16 14:26:22;;;;;;;0.80;0.80;;;;;;;;;;5062546;28;20035;-89
2023/10/16 14:28:51;;;;;;;0.93;0.90;;;;;;;;;;5068058;28;20115;-86
2023/10/16 14:31:20;;;;;;;0.85;0.57;;;;;;;;;;5070972;28;20040;-86
2023/10/16 14:33:49;;;;;;;1.05;0.73;;;;;;;;;;5088604;28;20037;-86
2023/10/16 14:36:16;;;;;;;1.33;1.00;;;;;;;;;;5045154;28;20033;-84
2023/10/16 14:38:43;;;;;;;0.80;0.80;;;;;;;;;;5075777;28;20035;-85
2023/10/16 14:41:09;;;;;;;1.10;0.85;;;;;;;;;;5053130;28;20024;-84
2023/10/16 14:43:38;;;;;;;0.63;0.63;;;;;;;;;;5071530;28;20023;-87
2023/10/16 14:46:07;;;;;;;0.68;0.57;;;;;;;;;;5054309;28;20166;-86
2023/10/16 14:48:33;;;;;;;0.75;0.75;;;;;;;;;;5071297;28;20028;-86
2023/10/16 14:50:59;;;;;;;0.68;0.68;;;;;;;;;;5076248;28;20023;-85
2023/10/16 14:54:05;;;;;;;0.55;0.55;;;;;;;;;;5063453;28;20023;-86
2023/10/16 14:56:37;;;;;;;1.00;0.90;;;;;;;;;;5072500;28;20398;-86
2023/10/16 14:59:21;;;;;;;0.45;0.45;;;;;;;;;;5072549;28;20050;-84
2023/10/16 15:01:46;;;;;;;0.45;0.45;;;;;;;;;;5066223;28;20021;-84
2023/10/16 15:04:12;;;;;;;2.90;0.88;;;;;;;;;;5077106;28;20012;-86
2023/10/16 15:06:37;;;;;;;0.47;0.47;;;;;;;;;;5059117;28;20039;-84
2023/10/16 15:09:09;;;;;;;0.52;0.52;;;;;;;;;;5060395;28;20032;-85
2023/10/16 15:11:35;;;;;;;2.38;0.82;;;;;;;;;;5060677;28;20482;-86
2023/10/16 15:14:01;;;;;;;3.05;1.02;;;;;;;;;;5061442;28;20032;-85
2023/10/16 15:16:27;;;;;;;1.00;0.68;;;;;;;;;;5062628;28;20024;-86
2023/10/16 15:18:52;;;;;;;1.92;0.80;;;;;;;;;;5063212;28;20453;-86
2023/10/16 15:21:18;;;;;;;0.63;0.63;;;;;;;;;;5085471;28;20047;-87
2023/10/16 15:23:45;;;;;;;1.52;0.93;;;;;;;;;;5095807;28;20023;-89
2023/10/16 15:26:10;;;;;;;0.95;0.70;;;;;;;;;;5080256;28;20012;-86
2023/10/16 15:28:36;;;;;;;0.82;0.82;;;;;;;;;;5061454;28;20017;-86
2023/10/16 15:31:01;;;;;;;3.75;0.90;;;;;;;;;;5076064;28;20024;-85
2023/10/16 15:33:27;;;;;;;0.70;0.50;;;;;;;;;;5079874;28;20024;-85
2023/10/16 15:35:53;;;;;;;1.63;0.88;;;;;;;;;;5050347;28;20034;-85
2023/10/16 15:38:28;;;;;;;1.13;0.80;;;;;;;;;;5076783;28;20029;-85
2023/10/16 15:40:55;;;;;;;0.43;0.43;;;;;;;;;;5056919;28;20025;-87
2023/10/16 15:43:21;;;;;;;0.40;0.40;;;;;;;;;;5056924;28;20025;-85
2023/10/16 15:46:36;;;;;;;0.65;0.65;;;;;;;;;;5056304;28;20082;-86
2023/10/16 15:49:06;;;;;;;0.47;0.47;;;;;;;;;;5055766;28;20474;-86
2023/10/16 15:51:38;;;;;;;0.50;0.50;;;;;;;;;;5056103;28;20033;-85
2023/10/16 15:54:04;;;;;;;;;;;;;;;;;;5075155;28;20432;-85
2023/10/16 15:57:19;;;;;;;0.47;0.47;;;;;;;;;;5075627;28;20024;-85
2023/10/16 15:59:26;;;;;;;0.30;0.30;;;;;;;;;;5067734;28;20088;-86
2023/10/16 16:01:53;;;;;;;0.40;0.40;;;;;;;;;;5055841;28;20062;-86
2023/10/16 16:04:20;;;;;;;1.75;0.73;;;;;;;;;;5058678;28;20013;-87
2023/10/16 16:06:46;;;;;;;0.30;0.30;;;;;;;;;;5058599;28;20021;-85
2023/10/16 16:09:13;;;;;;;0.65;0.50;;;;;;;;;;5059032;28;20028;-85
2023/10/16 16:11:44;;;;;;;0.30;0.30;;;;;;;;;;5057696;28;20027;-85
2023/10/16 16:14:12;;;;;;;1.17;0.63;;;;;;;;;;5074362;28;20383;-85
2023/10/16 16:16:38;;;;;;;0.52;0.52;;;;;;;;;;5065721;28;20173;-84
2023/10/16 16:19:05;;;;;;;1.27;0.80;;;;;;;;;;5059621;28;20082;-86
2023/10/16 16:21:32;;;;;;;2.05;0.68;;;;;;;;;;5074492;28;20035;-85
2023/10/16 16:24:39;;;;;;;0.95;0.77;;;;;;;;;;5056547;28;20121;-86
2023/10/16 16:27:09;;;;;;;0.73;0.57;;;;;;;;;;4956652;28;20055;-86
2023/10/16 16:29:37;;;;;;;0.85;0.63;;;;;;;;;;5042454;28;20040;-88
2023/10/16 16:32:06;;;;;;;1.23;0.60;;;;;;;;;;5073500;28;20082;-84
2023/10/16 16:34:32;;;;;;;0.82;0.60;;;;;;;;;;5056042;28;20024;-86
2023/10/16 16:36:58;;;;;;;0.60;0.60;;;;;;;;;;5055616;28;20031;-86
2023/10/16 16:39:24;;;;;;;0.65;0.63;;;;;;;;;;5055416;28;20098;-87
2023/10/16 16:41:50;;;;;;;0.63;0.60;;;;;;;;;;5054794;28;20504;-86
2023/10/16 16:44:17;;;;;;;0.77;0.75;;;;;;;;;;5061987;28;20025;-86
2023/10/16 16:46:43;;;;;;;0.60;0.60;;;;;;;;;;5054946;28;20035;-86
2023/10/16 16:49:12;;;;;;;0.77;0.77;;;;;;;;;;5055281;28;20097;-82
2023/10/16 16:51:38;;;;;;;0.60;0.60;;;;;;;;;;5074733;28;20032;-87
2023/10/16 16:54:04;;;;;;;2.72;0.85;;;;;;;;;;5059839;28;20784;-82
2023/10/16 16:56:29;;;;;;;0.60;0.60;;;;;;;;;;5055233;28;20462;-84
2023/10/16 16:58:54;;;;;;;1.10;0.77;;;;;;;;;;5073413;28;20435;-85
2023/10/16 17:01:20;;;;;;;2.90;1.10;;;;;;;;;;5055993;28;20020;-86